createdAt,value
2023-05-13T00:02:26.175Z,99.90
2023-05-13T00:04:53.072Z,99.90
2023-05-13T00:07:20.141Z,99.90
2023-05-13T00:09:46.883Z,99.90
2023-05-13T00:12:13.719Z,99.90
2023-05-13T00:14:40.856Z,99.90
2023-05-13T00:17:07.731Z,99.90
2023-05-13T00:19:35.227Z,99.90
2023-05-13T00:22:02.148Z,99.90
2023-05-13T00:24:29.152Z,99.90
2023-05-13T00:26:56.062Z,99.90
2023-05-13T00:29:22.940Z,99.90
2023-05-13T00:31:49.908Z,99.90
2023-05-13T00:34:18.555Z,99.90
2023-05-13T00:36:45.816Z,99.90
2023-05-13T00:39:13.436Z,99.90
2023-05-13T00:41:40.370Z,99.90
2023-05-13T00:44:07.363Z,99.90
2023-05-13T00:46:34.494Z,99.90
2023-05-13T00:49:02.184Z,99.90
2023-05-13T00:51:29.176Z,99.90
2023-05-13T00:53:59.226Z,99.90
2023-05-13T00:56:27.018Z,99.90
2023-05-13T00:58:54.063Z,99.90
2023-05-13T01:01:48.189Z,99.90
2023-05-13T01:04:36.414Z,99.90
2023-05-13T01:07:37.858Z,99.90
2023-05-13T01:10:07.607Z,99.90
2023-05-13T01:12:40.965Z,99.90
2023-05-13T01:15:22.138Z,99.90
2023-05-13T01:18:18.235Z,99.90
2023-05-13T01:20:46.439Z,99.90
2023-05-13T01:23:13.508Z,99.90
2023-05-13T01:25:40.761Z,99.90
2023-05-13T01:28:08.994Z,99.90
2023-05-13T01:30:36.630Z,99.90
2023-05-13T01:33:06.709Z,99.90
2023-05-13T01:35:34.130Z,99.90
2023-05-13T01:38:02.751Z,99.90
2023-05-13T01:40:32.753Z,99.90
2023-05-13T01:43:00.690Z,99.90
2023-05-13T01:45:33.741Z,99.90
2023-05-13T01:48:00.582Z,99.90
2023-05-13T01:50:27.438Z,99.90
2023-05-13T01:52:54.293Z,99.90
2023-05-13T01:55:21.178Z,99.90
2023-05-13T01:57:48.624Z,99.90
2023-05-13T02:00:16.105Z,99.90
2023-05-13T02:02:43.206Z,99.90
2023-05-13T02:05:10.036Z,99.90
2023-05-13T02:07:37.140Z,99.90
2023-05-13T02:10:04.359Z,99.90
2023-05-13T02:12:31.114Z,99.90
2023-05-13T02:14:57.997Z,99.90
2023-05-13T02:17:24.929Z,99.90
2023-05-13T02:19:52.153Z,99.90
2023-05-13T02:22:18.961Z,99.90
2023-05-13T02:24:45.867Z,99.90
2023-05-13T02:27:16.057Z,99.90
2023-05-13T02:29:43.012Z,99.90
2023-05-13T02:32:09.922Z,99.90
2023-05-13T02:34:36.800Z,99.90
2023-05-13T02:37:04.135Z,99.90
2023-05-13T02:39:30.907Z,99.90
2023-05-13T02:41:58.051Z,99.90
2023-05-13T02:44:24.930Z,99.90
2023-05-13T02:46:51.948Z,99.90
2023-05-13T02:49:18.858Z,99.90
2023-05-13T02:51:45.614Z,99.90
2023-05-13T02:54:13.519Z,99.90
2023-05-13T02:56:40.504Z,99.90
2023-05-13T02:59:07.587Z,99.90
2023-05-13T03:01:35.025Z,99.90
2023-05-13T03:04:02.429Z,99.90
2023-05-13T03:06:29.223Z,99.90
2023-05-13T03:08:55.931Z,99.90
2023-05-13T03:11:22.811Z,99.90
2023-05-13T03:13:49.884Z,99.90
2023-05-13T03:16:16.847Z,99.90
2023-05-13T03:18:43.707Z,99.90
2023-05-13T03:21:11.043Z,99.90
2023-05-13T03:23:37.827Z,99.90
2023-05-13T03:26:04.836Z,99.90
2023-05-13T03:28:31.753Z,99.90
2023-05-13T03:30:58.619Z,99.90
2023-05-13T03:33:25.533Z,99.90
2023-05-13T03:35:52.347Z,99.90
2023-05-13T03:38:19.272Z,99.90
2023-05-13T03:40:46.350Z,99.90
2023-05-13T03:43:13.149Z,99.90
2023-05-13T03:45:40.061Z,99.90
2023-05-13T03:48:07.250Z,99.90
2023-05-13T03:50:34.062Z,99.90
2023-05-13T03:53:02.264Z,99.90
2023-05-13T03:55:29.026Z,99.90
2023-05-13T03:57:55.922Z,99.90
2023-05-13T04:00:23.162Z,99.90
2023-05-13T04:02:50.755Z,99.90
2023-05-13T04:05:17.802Z,99.90
2023-05-13T04:07:44.684Z,99.90
2023-05-13T04:10:14.595Z,99.90
2023-05-13T04:12:42.355Z,99.90
2023-05-13T04:15:09.597Z,99.90
2023-05-13T04:17:36.480Z,99.90
2023-05-13T04:20:03.858Z,99.90
2023-05-13T04:22:30.865Z,99.90
2023-05-13T04:24:57.630Z,99.90
2023-05-13T04:27:24.793Z,99.90
2023-05-13T04:29:51.710Z,99.90
2023-05-13T04:32:22.126Z,99.90
2023-05-13T04:34:49.769Z,99.90
2023-05-13T04:37:16.863Z,99.90
2023-05-13T04:39:46.673Z,99.90
2023-05-13T04:42:14.948Z,99.90
2023-05-13T04:44:41.845Z,99.90
2023-05-13T04:47:08.797Z,99.90
2023-05-13T04:49:35.598Z,99.90
2023-05-13T04:52:03.987Z,99.90
2023-05-13T04:54:31.053Z,99.90
2023-05-13T04:56:57.860Z,99.90
2023-05-13T04:59:24.689Z,99.90
2023-05-13T05:01:51.596Z,99.90
2023-05-13T05:04:18.508Z,99.90
2023-05-13T05:06:45.338Z,99.90
2023-05-13T05:09:12.112Z,99.90
2023-05-13T05:11:39.116Z,99.90
2023-05-13T05:14:06.102Z,99.90
2023-05-13T05:16:33.070Z,99.90
2023-05-13T05:18:59.831Z,99.90
2023-05-13T05:21:26.858Z,99.90
2023-05-13T05:23:53.765Z,99.90
2023-05-13T05:26:20.765Z,99.90
2023-05-13T05:28:47.996Z,99.90
2023-05-13T05:31:14.949Z,99.90
2023-05-13T05:33:42.336Z,99.90
2023-05-13T05:36:09.875Z,99.90
2023-05-13T05:38:36.864Z,99.90
2023-05-13T05:41:03.802Z,99.90
2023-05-13T05:43:30.903Z,99.90
2023-05-13T05:45:57.765Z,99.90
2023-05-13T05:48:25.086Z,99.90
2023-05-13T05:50:51.949Z,99.90
2023-05-13T05:53:18.800Z,99.90
2023-05-13T05:55:45.684Z,99.90
2023-05-13T05:58:16.552Z,99.90
2023-05-13T06:00:43.392Z,99.90
2023-05-13T06:03:11.001Z,99.90
2023-05-13T06:05:39.331Z,99.90
2023-05-13T06:08:06.378Z,99.90
2023-05-13T06:10:33.347Z,99.90
2023-05-13T06:13:00.233Z,99.90
2023-05-13T06:15:26.984Z,99.90
2023-05-13T06:17:53.832Z,99.90
2023-05-13T06:20:20.887Z,99.90
2023-05-13T06:22:48.278Z,99.90
2023-05-13T06:25:15.075Z,99.90
2023-05-13T06:27:41.998Z,99.90
2023-05-13T06:30:08.933Z,99.90
2023-05-13T06:32:35.823Z,99.90
2023-05-13T06:35:04.281Z,99.90
2023-05-13T06:37:35.232Z,99.90
2023-05-13T06:40:02.113Z,99.90
2023-05-13T06:42:28.898Z,99.90
2023-05-13T06:44:55.830Z,99.90
2023-05-13T06:47:24.015Z,99.90
2023-05-13T06:49:50.951Z,99.90
2023-05-13T06:52:17.723Z,99.90
2023-05-13T06:54:44.554Z,99.90
2023-05-13T06:57:12.247Z,99.90
2023-05-13T06:59:39.175Z,99.90
2023-05-13T07:02:09.636Z,99.90
2023-05-13T07:04:38.264Z,99.90
2023-05-13T07:07:06.225Z,99.90
2023-05-13T07:09:42.138Z,99.90
2023-05-13T07:12:17.125Z,99.90
2023-05-13T07:14:45.452Z,99.90
2023-05-13T07:17:12.210Z,99.90
2023-05-13T07:19:39.116Z,99.90
2023-05-13T07:22:09.833Z,99.90
2023-05-13T07:24:36.564Z,99.90
2023-05-13T07:27:03.772Z,99.90
2023-05-13T07:29:32.459Z,98.80
2023-05-13T07:32:05.461Z,99.40
2023-05-13T07:34:32.625Z,98.70
2023-05-13T07:36:59.447Z,97.10
2023-05-13T07:39:26.716Z,97.70
2023-05-13T07:41:53.700Z,97.70
2023-05-13T07:44:24.292Z,97.60
2023-05-13T07:46:53.470Z,98.80
2023-05-13T07:49:21.285Z,98.60
2023-05-13T07:51:48.120Z,99.00
2023-05-13T07:54:21.496Z,99.50
2023-05-13T07:56:48.207Z,98.90
2023-05-13T07:59:15.194Z,99.10
2023-05-13T08:01:42.914Z,99.00
2023-05-13T08:04:11.357Z,99.60
2023-05-13T08:06:41.192Z,98.90
2023-05-13T08:09:12.115Z,99.50
2023-05-13T08:11:38.942Z,99.30
2023-05-13T08:14:06.325Z,99.20
2023-05-13T08:16:38.964Z,98.60
2023-05-13T08:19:05.914Z,97.60
2023-05-13T08:21:32.888Z,97.10
2023-05-13T08:23:59.640Z,97.70
2023-05-13T08:26:26.817Z,98.20
2023-05-13T08:28:55.065Z,98.50
2023-05-13T08:31:24.350Z,97.20
2023-05-13T08:33:53.259Z,96.90
2023-05-13T08:36:21.980Z,97.40
2023-05-13T08:38:49.064Z,96.40
2023-05-13T08:41:16.734Z,96.80
2023-05-13T08:43:44.282Z,96.30
2023-05-13T08:46:12.568Z,94.30
2023-05-13T08:48:41.146Z,95.60
2023-05-13T08:51:08.929Z,94.80
2023-05-13T08:53:38.443Z,93.70
2023-05-13T08:56:07.752Z,93.70
2023-05-13T08:58:34.526Z,92.80
2023-05-13T09:01:02.829Z,92.00
2023-05-13T09:03:30.056Z,91.60
2023-05-13T09:06:00.045Z,91.10
2023-05-13T09:08:26.798Z,90.50
2023-05-13T09:10:54.201Z,89.50
2023-05-13T09:13:21.974Z,89.50
2023-05-13T09:15:50.760Z,89.60
2023-05-13T09:18:19.358Z,88.10
2023-05-13T09:20:46.525Z,87.90
2023-05-13T09:23:13.611Z,87.90
2023-05-13T09:25:40.566Z,85.20
2023-05-13T09:28:08.279Z,83.40
2023-05-13T09:30:38.541Z,84.10
2023-05-13T09:33:08.622Z,81.70
2023-05-13T09:35:41.440Z,81.80
2023-05-13T09:38:15.297Z,81.40
2023-05-13T09:40:49.525Z,80.40
2023-05-13T09:43:16.634Z,79.00
2023-05-13T09:45:43.538Z,78.90
2023-05-13T09:48:11.512Z,76.40
2023-05-13T09:50:48.920Z,76.70
2023-05-13T09:53:16.224Z,77.40
2023-05-13T09:55:50.173Z,77.10
2023-05-13T09:58:17.340Z,77.60
2023-05-13T10:00:44.811Z,76.00
2023-05-13T10:03:12.168Z,74.50
2023-05-13T10:05:40.080Z,74.90
2023-05-13T10:08:10.626Z,73.50
2023-05-13T10:10:39.539Z,74.40
2023-05-13T10:13:11.018Z,75.60
2023-05-13T10:15:48.986Z,73.70
2023-05-13T10:18:17.544Z,73.00
2023-05-13T10:20:45.671Z,72.40
2023-05-13T10:23:12.925Z,70.80
2023-05-13T10:25:41.713Z,72.40
2023-05-13T10:28:09.682Z,72.90
2023-05-13T10:30:36.862Z,71.30
2023-05-13T10:33:04.621Z,70.50
2023-05-13T10:35:40.359Z,71.10
2023-05-13T10:39:02.376Z,72.60
2023-05-13T10:42:14.801Z,71.40
2023-05-13T10:44:41.558Z,70.00
2023-05-13T10:47:09.945Z,70.30
2023-05-13T10:49:37.184Z,70.30
2023-05-13T10:52:06.277Z,69.70
2023-05-13T10:54:40.669Z,70.20
2023-05-13T10:57:08.441Z,69.90
2023-05-13T10:59:37.172Z,70.70
2023-05-13T11:02:24.401Z,71.00
2023-05-13T11:05:01.008Z,70.10
2023-05-13T11:07:31.082Z,69.90
2023-05-13T11:09:59.848Z,69.80
2023-05-13T11:12:26.748Z,69.60
2023-05-13T11:14:56.531Z,70.40
2023-05-13T11:17:23.466Z,69.60
2023-05-13T11:19:51.638Z,69.50
2023-05-13T11:22:18.340Z,69.40
2023-05-13T11:24:47.111Z,68.80
2023-05-13T11:27:18.085Z,68.40
2023-05-13T11:29:52.637Z,67.70
2023-05-13T11:32:44.228Z,68.60
2023-05-13T11:35:11.459Z,69.10
2023-05-13T11:37:43.754Z,69.10
2023-05-13T11:40:11.451Z,68.70
2023-05-13T11:42:40.086Z,68.60
2023-05-13T11:45:07.959Z,68.60
2023-05-13T11:47:35.018Z,69.20
2023-05-13T11:50:01.807Z,70.20
2023-05-13T11:52:29.436Z,70.00
2023-05-13T11:54:58.008Z,70.60
2023-05-13T11:57:26.935Z,71.00
2023-05-13T12:00:05.592Z,72.00
2023-05-13T12:02:37.859Z,71.90
2023-05-13T12:05:07.440Z,71.20
2023-05-13T12:07:35.274Z,72.00
2023-05-13T12:10:03.560Z,71.60
2023-05-13T12:12:32.622Z,71.20
2023-05-13T12:15:02.298Z,75.10
2023-05-13T12:17:30.257Z,90.20
2023-05-13T12:20:12.650Z,99.90
2023-05-13T12:23:06.510Z,98.50
2023-05-13T12:25:47.833Z,99.90
2023-05-13T12:28:18.902Z,99.90
2023-05-13T12:30:53.952Z,99.90
2023-05-13T12:33:26.006Z,99.90
2023-05-13T12:36:26.092Z,97.20
2023-05-13T12:39:03.197Z,96.90
2023-05-13T12:41:36.854Z,91.90
2023-05-13T12:44:16.241Z,88.00
2023-05-13T12:47:03.726Z,87.50
2023-05-13T12:49:30.731Z,85.60
2023-05-13T12:51:57.474Z,86.10
2023-05-13T12:54:24.465Z,84.00
2023-05-13T12:56:51.978Z,82.20
2023-05-13T12:59:19.274Z,82.90
2023-05-13T13:01:49.754Z,83.80
2023-05-13T13:04:17.382Z,86.00
2023-05-13T13:06:44.294Z,84.40
2023-05-13T13:09:11.216Z,85.80
2023-05-13T13:11:39.373Z,85.60
2023-05-13T13:14:06.170Z,84.70
2023-05-13T13:16:32.978Z,86.70
2023-05-13T13:19:01.801Z,88.70
2023-05-13T13:21:28.904Z,87.90
2023-05-13T13:23:55.791Z,86.80
2023-05-13T13:26:23.303Z,88.30
2023-05-13T13:28:50.008Z,88.70
2023-05-13T13:31:16.995Z,86.70
2023-05-13T13:33:43.851Z,87.70
2023-05-13T13:36:10.631Z,86.60
2023-05-13T13:38:37.448Z,86.30
2023-05-13T13:41:04.164Z,85.50
2023-05-13T13:43:30.920Z,85.50
2023-05-13T13:45:57.752Z,86.30
2023-05-13T13:48:25.166Z,86.90
2023-05-13T13:50:53.026Z,85.30
2023-05-13T13:53:19.946Z,85.30
2023-05-13T13:55:46.708Z,82.10
2023-05-13T13:58:14.488Z,80.60
2023-05-13T14:00:41.323Z,78.90
2023-05-13T14:03:08.386Z,78.80
2023-05-13T14:05:35.164Z,77.90
2023-05-13T14:08:01.898Z,78.60
2023-05-13T14:10:28.572Z,79.00
2023-05-13T14:12:55.479Z,78.40
2023-05-13T14:15:22.447Z,80.20
2023-05-13T14:17:49.279Z,77.80
2023-05-13T14:20:16.186Z,76.90
2023-05-13T14:22:42.944Z,76.00
2023-05-13T14:25:10.009Z,77.20
2023-05-13T14:27:36.950Z,75.40
2023-05-13T14:30:04.954Z,75.40
2023-05-13T14:32:31.850Z,76.20
2023-05-13T14:34:58.996Z,76.50
2023-05-13T14:37:25.844Z,75.80
2023-05-13T14:39:52.715Z,75.20
2023-05-13T14:42:19.538Z,75.40
2023-05-13T14:44:46.314Z,75.30
2023-05-13T14:47:13.093Z,75.50
2023-05-13T14:49:39.861Z,75.80
2023-05-13T14:52:06.738Z,76.50
2023-05-13T14:54:35.853Z,75.10
2023-05-13T14:57:07.683Z,75.10
2023-05-13T14:59:34.758Z,75.00
2023-05-13T15:02:02.600Z,74.70
2023-05-13T15:04:29.647Z,73.30
2023-05-13T15:06:56.710Z,75.00
2023-05-13T15:09:23.641Z,75.40
2023-05-13T15:11:50.412Z,76.40
2023-05-13T15:14:18.013Z,75.40
2023-05-13T15:16:45.013Z,75.30
2023-05-13T15:19:11.940Z,76.00
2023-05-13T15:21:38.821Z,76.30
2023-05-13T15:24:05.947Z,76.40
2023-05-13T15:26:32.871Z,74.90
2023-05-13T15:28:59.723Z,74.40
2023-05-13T15:31:26.789Z,75.40
2023-05-13T15:33:53.669Z,73.40
2023-05-13T15:36:20.602Z,72.80
2023-05-13T15:38:47.816Z,71.90
2023-05-13T15:41:14.964Z,71.70
2023-05-13T15:43:41.681Z,71.60
2023-05-13T15:46:08.832Z,70.90
2023-05-13T15:48:36.492Z,69.60
2023-05-13T15:51:03.816Z,70.20
2023-05-13T15:53:30.640Z,69.30
2023-05-13T15:55:57.486Z,68.80
2023-05-13T15:58:24.409Z,68.40
2023-05-13T16:00:51.206Z,68.10
2023-05-13T16:03:18.057Z,67.50
2023-05-13T16:05:44.972Z,67.00
2023-05-13T16:08:11.732Z,66.00
2023-05-13T16:10:38.651Z,65.70
2023-05-13T16:13:05.465Z,65.10
2023-05-13T16:15:32.412Z,64.70
2023-05-13T16:17:59.416Z,63.60
2023-05-13T16:20:26.635Z,64.80
2023-05-13T16:22:53.434Z,65.00
2023-05-13T16:25:21.652Z,64.40
2023-05-13T16:27:49.944Z,64.60
2023-05-13T16:30:16.833Z,64.70
2023-05-13T16:32:43.771Z,64.10
2023-05-13T16:35:11.846Z,64.50
2023-05-13T16:37:38.641Z,64.70
2023-05-13T16:40:06.301Z,65.20
2023-05-13T16:42:33.149Z,65.00
2023-05-13T16:44:59.930Z,64.20
2023-05-13T16:47:26.708Z,64.20
2023-05-13T16:49:54.526Z,64.10
2023-05-13T16:52:21.797Z,63.30
2023-05-13T16:54:48.657Z,63.50
2023-05-13T16:57:16.080Z,63.00
2023-05-13T16:59:43.244Z,63.00
2023-05-13T17:02:10.057Z,63.00
2023-05-13T17:04:36.787Z,63.40
2023-05-13T17:07:03.557Z,63.90
2023-05-13T17:09:30.930Z,63.60
2023-05-13T17:11:57.783Z,63.80
2023-05-13T17:14:24.838Z,64.50
2023-05-13T17:16:51.763Z,63.30
2023-05-13T17:19:18.859Z,64.60
2023-05-13T17:21:45.624Z,64.20
2023-05-13T17:24:12.781Z,64.60
2023-05-13T17:26:40.025Z,64.80
2023-05-13T17:29:07.387Z,64.00
2023-05-13T17:31:35.217Z,65.00
2023-05-13T17:34:02.623Z,64.80
2023-05-13T17:36:29.822Z,65.10
2023-05-13T17:38:57.210Z,64.70
2023-05-13T17:41:24.282Z,65.30
2023-05-13T17:43:51.381Z,65.90
2023-05-13T17:46:18.259Z,65.30
2023-05-13T17:48:45.049Z,66.00
2023-05-13T17:51:12.187Z,66.10
2023-05-13T17:53:39.094Z,66.00
2023-05-13T17:56:08.209Z,65.90
2023-05-13T17:58:34.926Z,66.20
2023-05-13T18:01:02.015Z,67.00
2023-05-13T18:03:28.817Z,67.00
2023-05-13T18:05:55.838Z,66.50
2023-05-13T18:08:22.731Z,67.20
2023-05-13T18:10:49.552Z,68.10
2023-05-13T18:13:16.420Z,68.50
2023-05-13T18:15:43.240Z,68.40
2023-05-13T18:18:10.120Z,68.60
2023-05-13T18:20:39.966Z,69.40
2023-05-13T18:23:06.809Z,69.20
2023-05-13T18:25:36.269Z,69.50
2023-05-13T18:28:09.432Z,69.90
2023-05-13T18:30:36.272Z,71.20
2023-05-13T18:33:03.108Z,71.70
2023-05-13T18:35:29.989Z,72.00
2023-05-13T18:37:56.940Z,72.30
2023-05-13T18:40:24.047Z,73.50
2023-05-13T18:42:51.104Z,73.70
2023-05-13T18:45:18.259Z,73.70
2023-05-13T18:47:45.112Z,74.30
2023-05-13T18:50:11.999Z,75.00
2023-05-13T18:52:40.149Z,75.50
2023-05-13T18:55:07.580Z,75.50
2023-05-13T18:57:34.531Z,75.30
2023-05-13T19:00:01.337Z,75.80
2023-05-13T19:02:28.328Z,77.00
2023-05-13T19:04:55.551Z,76.90
2023-05-13T19:07:22.403Z,78.20
2023-05-13T19:09:49.329Z,79.10
2023-05-13T19:12:16.195Z,78.50
2023-05-13T19:14:43.568Z,79.10
2023-05-13T19:17:11.009Z,79.80
2023-05-13T19:19:38.260Z,81.00
2023-05-13T19:22:05.773Z,82.00
2023-05-13T19:24:32.506Z,82.10
2023-05-13T19:26:59.515Z,83.70
2023-05-13T19:29:26.234Z,84.60
2023-05-13T19:31:53.019Z,86.00
2023-05-13T19:34:19.962Z,86.10
2023-05-13T19:36:46.810Z,87.10
2023-05-13T19:39:13.575Z,87.90
2023-05-13T19:41:40.685Z,88.20
2023-05-13T19:44:07.495Z,89.00
2023-05-13T19:46:34.482Z,88.90
2023-05-13T19:49:01.316Z,90.10
2023-05-13T19:51:28.066Z,90.70
2023-05-13T19:53:54.908Z,91.40
2023-05-13T19:56:21.824Z,92.50
2023-05-13T19:58:49.140Z,93.30
2023-05-13T20:01:15.972Z,93.80
2023-05-13T20:03:42.955Z,93.50
2023-05-13T20:06:09.833Z,94.50
2023-05-13T20:08:36.686Z,95.50
2023-05-13T20:11:03.399Z,96.10
2023-05-13T20:13:30.132Z,96.60
2023-05-13T20:15:57.089Z,96.90
2023-05-13T20:18:24.178Z,96.60
2023-05-13T20:20:51.552Z,97.50
2023-05-13T20:23:18.252Z,98.10
2023-05-13T20:25:47.180Z,99.40
2023-05-13T20:28:14.014Z,99.60
2023-05-13T20:30:42.687Z,99.90
2023-05-13T20:33:09.618Z,99.90
2023-05-13T20:35:39.318Z,99.90
2023-05-13T20:38:06.190Z,99.90
2023-05-13T20:40:33.117Z,99.90
2023-05-13T20:43:01.452Z,99.90
2023-05-13T20:45:28.748Z,99.90
2023-05-13T20:47:59.443Z,99.90
2023-05-13T20:50:27.681Z,99.90
2023-05-13T20:52:55.064Z,99.90
2023-05-13T20:55:22.394Z,99.90
2023-05-13T20:57:50.856Z,99.90
2023-05-13T21:00:17.885Z,99.90
2023-05-13T21:02:45.132Z,99.90
2023-05-13T21:05:12.278Z,99.90
2023-05-13T21:07:39.097Z,99.90
2023-05-13T21:10:07.073Z,99.90
2023-05-13T21:12:33.884Z,99.90
2023-05-13T21:15:00.629Z,99.90
2023-05-13T21:17:27.488Z,99.90
2023-05-13T21:19:54.263Z,99.90
2023-05-13T21:22:21.105Z,99.90
2023-05-13T21:24:47.956Z,99.90
2023-05-13T21:27:14.736Z,99.90
2023-05-13T21:29:41.457Z,99.90
2023-05-13T21:32:08.410Z,99.90
2023-05-13T21:34:35.312Z,99.90
2023-05-13T21:37:01.979Z,99.90
2023-05-13T21:39:28.810Z,99.90
2023-05-13T21:41:55.647Z,99.90
2023-05-13T21:44:24.747Z,99.90
2023-05-13T21:46:51.581Z,99.90
2023-05-13T21:49:18.349Z,99.90
2023-05-13T21:51:45.102Z,99.90
2023-05-13T21:54:11.935Z,99.90
2023-05-13T21:56:38.655Z,99.90
2023-05-13T21:59:05.452Z,99.90
2023-05-13T22:01:32.220Z,99.90
2023-05-13T22:03:58.929Z,99.90
2023-05-13T22:06:25.668Z,99.90
2023-05-13T22:08:52.580Z,99.90
2023-05-13T22:11:19.344Z,99.90
2023-05-13T22:13:46.510Z,99.90
2023-05-13T22:16:14.361Z,99.90
2023-05-13T22:18:41.767Z,99.90
2023-05-13T22:21:08.648Z,99.90
2023-05-13T22:23:35.551Z,99.90
2023-05-13T22:26:02.386Z,99.90
2023-05-13T22:28:29.302Z,99.90
2023-05-13T22:30:56.969Z,99.90
2023-05-13T22:33:23.869Z,99.90
2023-05-13T22:35:51.107Z,99.90
2023-05-13T22:38:18.020Z,99.90
2023-05-13T22:40:44.749Z,99.90
2023-05-13T22:43:11.488Z,99.90
2023-05-13T22:45:38.262Z,99.90
2023-05-13T22:48:05.163Z,99.90
2023-05-13T22:50:32.062Z,99.90
2023-05-13T22:52:58.838Z,99.90
2023-05-13T22:55:25.651Z,99.90
2023-05-13T22:57:52.805Z,99.90
2023-05-13T23:00:20.114Z,99.90
2023-05-13T23:02:46.941Z,99.90
2023-05-13T23:05:13.792Z,99.90
2023-05-13T23:07:40.751Z,99.90
2023-05-13T23:10:07.924Z,99.90
2023-05-13T23:12:34.809Z,99.90
2023-05-13T23:15:01.771Z,99.90
2023-05-13T23:17:28.571Z,99.90
2023-05-13T23:19:55.455Z,99.90
2023-05-13T23:22:22.300Z,99.90
2023-05-13T23:24:49.059Z,99.90
2023-05-13T23:27:16.040Z,99.90
2023-05-13T23:29:42.861Z,99.90
2023-05-13T23:32:09.718Z,99.90
2023-05-13T23:34:36.588Z,99.90
2023-05-13T23:37:03.502Z,99.90
2023-05-13T23:39:30.276Z,99.90
2023-05-13T23:41:57.120Z,99.90
2023-05-13T23:44:24.057Z,99.90
2023-05-13T23:46:50.819Z,99.90
2023-05-13T23:49:17.592Z,99.90
2023-05-13T23:51:44.408Z,99.90
2023-05-13T23:54:11.273Z,99.90
2023-05-13T23:56:38.042Z,99.90
2023-05-13T23:59:05.236Z,99.90
